sensor_id;sensor_type;location;lat;lon;timestamp;pressure;altitude;pressure_sealevel;temperature;humidity
31346;BME280;21711;49.708;18.568;2023-02-21T00:00:15;96952.56;;;8.94;100.00
31346;BME280;21711;49.708;18.568;2023-02-21T00:03:01;96953.84;;;8.97;100.00
31346;BME280;21711;49.708;18.568;2023-02-21T00:05:47;96941.72;;;8.95;100.00
31346;BME280;21711;49.708;18.568;2023-02-21T00:08:33;96938.78;;;9.02;100.00
31346;BME280;21711;49.708;18.568;2023-02-21T00:11:19;96934.84;;;9.00;100.00
31346;BME280;21711;49.708;18.568;2023-02-21T00:14:05;96925.88;;;8.95;100.00
31346;BME280;21711;49.708;18.568;2023-02-21T00:16:51;96931.72;;;8.92;100.00
31346;BME280;21711;49.708;18.568;2023-02-21T00:19:37;96930.38;;;8.95;100.00
31346;BME280;21711;49.708;18.568;2023-02-21T00:22:23;96924.03;;;9.01;100.00
31346;BME280;21711;49.708;18.568;2023-02-21T00:25:09;96917.19;;;8.95;100.00
31346;BME280;21711;49.708;18.568;2023-02-21T00:27:55;96904.59;;;8.81;100.00
31346;BME280;21711;49.708;18.568;2023-02-21T00:30:41;96905.88;;;8.89;100.00
31346;BME280;21711;49.708;18.568;2023-02-21T00:33:27;96901.91;;;8.92;100.00
31346;BME280;21711;49.708;18.568;2023-02-21T00:36:16;96910.84;;;8.96;100.00
31346;BME280;21711;49.708;18.568;2023-02-21T00:39:02;96903.47;;;8.93;100.00
31346;BME280;21711;49.708;18.568;2023-02-21T00:41:48;96909.47;;;9.09;100.00
31346;BME280;21711;49.708;18.568;2023-02-21T00:44:34;96909.53;;;8.99;100.00
31346;BME280;21711;49.708;18.568;2023-02-21T00:47:20;96910.09;;;8.90;100.00
31346;BME280;21711;49.708;18.568;2023-02-21T00:50:06;96892.41;;;8.96;100.00
31346;BME280;21711;49.708;18.568;2023-02-21T00:52:52;96905.34;;;8.92;100.00
31346;BME280;21711;49.708;18.568;2023-02-21T00:55:38;96891.16;;;8.78;100.00
31346;BME280;21711;49.708;18.568;2023-02-21T00:58:24;96891.69;;;8.75;100.00
31346;BME280;21711;49.708;18.568;2023-02-21T01:01:10;96883.31;;;8.67;100.00
31346;BME280;21711;49.708;18.568;2023-02-21T01:03:58;96891.69;;;8.75;100.00
31346;BME280;21711;49.708;18.568;2023-02-21T01:06:49;96879.84;;;8.72;100.00
31346;BME280;21711;49.708;18.568;2023-02-21T01:09:35;96878.53;;;8.70;100.00
31346;BME280;21711;49.708;18.568;2023-02-21T01:12:21;96877.66;;;8.95;100.00
31346;BME280;21711;49.708;18.568;2023-02-21T01:15:07;96897.44;;;8.92;100.00
31346;BME280;21711;49.708;18.568;2023-02-21T01:17:53;96894.81;;;8.87;100.00
31346;BME280;21711;49.708;18.568;2023-02-21T01:20:39;96879.03;;;8.82;100.00
31346;BME280;21711;49.708;18.568;2023-02-21T01:23:25;96894.25;;;8.90;100.00
31346;BME280;21711;49.708;18.568;2023-02-21T01:26:11;96887.19;;;8.86;100.00
31346;BME280;21711;49.708;18.568;2023-02-21T01:28:57;96881.38;;;8.78;100.00
31346;BME280;21711;49.708;18.568;2023-02-21T01:31:43;96879.03;;;8.72;100.00
31346;BME280;21711;49.708;18.568;2023-02-21T01:34:30;96886.91;;;8.87;100.00
31346;BME280;21711;49.708;18.568;2023-02-21T01:37:16;96878.44;;;8.90;100.00
31346;BME280;21711;49.708;18.568;2023-02-21T01:40:02;96878.75;;;8.89;100.00
31346;BME280;21711;49.708;18.568;2023-02-21T01:42:47;96866.91;;;8.76;100.00
31346;BME280;21711;49.708;18.568;2023-02-21T01:45:49;96874.53;;;8.82;100.00
31346;BME280;21711;49.708;18.568;2023-02-21T01:48:36;96873.47;;;8.84;100.00
31346;BME280;21711;49.708;18.568;2023-02-21T01:51:30;96869.28;;;8.77;100.00
31346;BME280;21711;49.708;18.568;2023-02-21T01:54:19;96865.53;;;8.84;100.00
31346;BME280;21711;49.708;18.568;2023-02-21T01:57:07;96868.19;;;8.84;100.00
31346;BME280;21711;49.708;18.568;2023-02-21T01:59:56;96856.34;;;8.76;100.00
31346;BME280;21711;49.708;18.568;2023-02-21T02:06:08;96863.81;;;8.63;100.00
31346;BME280;21711;49.708;18.568;2023-02-21T02:08:54;96851.94;;;8.66;100.00
31346;BME280;21711;49.708;18.568;2023-02-21T02:12:27;96856.34;;;8.76;100.00
31346;BME280;21711;49.708;18.568;2023-02-21T02:15:33;96856.94;;;8.67;100.00
31346;BME280;21711;49.708;18.568;2023-02-21T02:24:59;96846.41;;;8.67;100.00
31346;BME280;21711;49.708;18.568;2023-02-21T02:31:20;96849.28;;;8.66;100.00
31346;BME280;21711;49.708;18.568;2023-02-21T02:36:52;96851.66;;;8.62;100.00
31346;BME280;21711;49.708;18.568;2023-02-21T02:39:34;96833.22;;;8.57;100.00
31346;BME280;21711;49.708;18.568;2023-02-21T02:42:28;96826.94;;;8.42;100.00
31346;BME280;21711;49.708;18.568;2023-02-21T02:45:24;96834.56;;;8.49;100.00
31346;BME280;21711;49.708;18.568;2023-02-21T02:48:08;96833.50;;;8.50;100.00
31346;BME280;21711;49.708;18.568;2023-02-21T02:50:40;96833.53;;;8.40;100.00
31346;BME280;21711;49.708;18.568;2023-02-21T02:53:09;96841.69;;;8.49;100.00
31346;BME280;21711;49.708;18.568;2023-02-21T02:55:56;96839.84;;;8.44;100.00
31346;BME280;21711;49.708;18.568;2023-02-21T02:58:30;96836.16;;;8.40;100.00
31346;BME280;21711;49.708;18.568;2023-02-21T03:15:37;96839.06;;;8.44;100.00
31346;BME280;21711;49.708;18.568;2023-02-21T03:21:03;96843.53;;;8.48;100.00
31346;BME280;21711;49.708;18.568;2023-02-21T03:23:33;96825.09;;;8.53;100.00
31346;BME280;21711;49.708;18.568;2023-02-21T03:26:05;96838.00;;;8.55;100.00
31346;BME280;21711;49.708;18.568;2023-02-21T03:28:37;96845.09;;;8.49;100.00
31346;BME280;21711;49.708;18.568;2023-02-21T03:31:07;96843.50;;;8.59;100.00
31346;BME280;21711;49.708;18.568;2023-02-21T03:33:35;96855.91;;;8.58;100.00
31346;BME280;21711;49.708;18.568;2023-02-21T03:36:07;96850.66;;;8.58;100.00
31346;BME280;21711;49.708;18.568;2023-02-21T03:38:36;96838.28;;;8.43;100.00
31346;BME280;21711;49.708;18.568;2023-02-21T03:41:04;96850.13;;;8.46;100.00
31346;BME280;21711;49.708;18.568;2023-02-21T03:43:34;96851.44;;;8.48;100.00
31346;BME280;21711;49.708;18.568;2023-02-21T03:46:03;96845.34;;;8.48;100.00
31346;BME280;21711;49.708;18.568;2023-02-21T03:48:30;96845.63;;;8.51;100.00
31346;BME280;21711;49.708;18.568;2023-02-21T03:51:14;96850.63;;;8.48;100.00
31346;BME280;21711;49.708;18.568;2023-02-21T03:53:42;96848.56;;;8.39;100.00
31346;BME280;21711;49.708;18.568;2023-02-21T03:56:11;96840.09;;;8.48;100.00
31346;BME280;21711;49.708;18.568;2023-02-21T03:58:57;96855.91;;;8.48;100.00
31346;BME280;21711;49.708;18.568;2023-02-21T04:01:24;96848.00;;;8.42;100.00
31346;BME280;21711;49.708;18.568;2023-02-21T04:03:53;96844.09;;;8.29;100.00
31346;BME280;21711;49.708;18.568;2023-02-21T04:06:21;96851.69;;;8.47;100.00
31346;BME280;21711;49.708;18.568;2023-02-21T04:08:48;96849.63;;;8.28;100.00
31346;BME280;21711;49.708;18.568;2023-02-21T04:11:22;96846.47;;;8.36;100.00
31346;BME280;21711;49.708;18.568;2023-02-21T04:13:51;96849.34;;;8.40;100.00
31346;BME280;21711;49.708;18.568;2023-02-21T04:16:19;96835.09;;;8.41;100.00
31346;BME280;21711;49.708;18.568;2023-02-21T04:18:48;96848.00;;;8.42;100.00
31346;BME280;21711;49.708;18.568;2023-02-21T04:21:17;96843.81;;;8.41;100.00
31346;BME280;21711;49.708;18.568;2023-02-21T04:23:45;96852.22;;;8.49;100.00
31346;BME280;21711;49.708;18.568;2023-02-21T04:26:14;96845.41;;;8.37;100.00
31346;BME280;21711;49.708;18.568;2023-02-21T04:28:45;96849.06;;;8.47;100.00
31346;BME280;21711;49.708;18.568;2023-02-21T04:31:15;96844.06;;;8.40;100.00
31346;BME280;21711;49.708;18.568;2023-02-21T04:33:43;96837.53;;;8.27;100.00
31346;BME280;21711;49.708;18.568;2023-02-21T04:36:14;96848.28;;;8.41;100.00
31346;BME280;21711;49.708;18.568;2023-02-21T04:38:42;96843.56;;;8.38;100.00
31346;BME280;21711;49.708;18.568;2023-02-21T04:41:09;96844.63;;;8.37;100.00
31346;BME280;21711;49.708;18.568;2023-02-21T04:43:37;96842.25;;;8.35;100.00
31346;BME280;21711;49.708;18.568;2023-02-21T04:46:04;96846.44;;;8.41;100.00
31346;BME280;21711;49.708;18.568;2023-02-21T04:48:32;96850.16;;;8.35;100.00
31346;BME280;21711;49.708;18.568;2023-02-21T04:50:59;96852.53;;;8.26;100.00
31346;BME280;21711;49.708;18.568;2023-02-21T04:53:40;96854.66;;;8.19;100.00
31346;BME280;21711;49.708;18.568;2023-02-21T04:56:08;96844.63;;;8.26;100.00
31346;BME280;21711;49.708;18.568;2023-02-21T04:58:37;96854.38;;;8.31;100.00
31346;BME280;21711;49.708;18.568;2023-02-21T05:01:13;96851.00;;;8.10;100.00
31346;BME280;21711;49.708;18.568;2023-02-21T05:03:41;96847.56;;;8.14;100.00
31346;BME280;21711;49.708;18.568;2023-02-21T05:06:08;96862.03;;;8.22;100.00
31346;BME280;21711;49.708;18.568;2023-02-21T05:08:35;96852.06;;;8.09;100.00
31346;BME280;21711;49.708;18.568;2023-02-21T05:11:03;96866.50;;;8.22;100.00
31346;BME280;21711;49.708;18.568;2023-02-21T05:13:30;96855.44;;;8.14;100.00
31346;BME280;21711;49.708;18.568;2023-02-21T05:15:58;96863.09;;;8.21;100.00
31346;BME280;21711;49.708;18.568;2023-02-21T05:18:25;96860.19;;;8.18;100.00
31346;BME280;21711;49.708;18.568;2023-02-21T05:20:52;96855.19;;;8.16;100.00
31346;BME280;21711;49.708;18.568;2023-02-21T05:23:20;96852.03;;;8.19;100.00
31346;BME280;21711;49.708;18.568;2023-02-21T05:26:02;96854.13;;;8.17;100.00
31346;BME280;21711;49.708;18.568;2023-02-21T05:28:30;96849.16;;;8.05;100.00
31346;BME280;21711;49.708;18.568;2023-02-21T05:30:58;96840.97;;;8.12;100.00
31346;BME280;21711;49.708;18.568;2023-02-21T05:33:27;96845.19;;;8.18;100.00
31346;BME280;21711;49.708;18.568;2023-02-21T05:35:55;96836.22;;;8.19;100.00
31346;BME280;21711;49.708;18.568;2023-02-21T05:38:24;96839.66;;;8.14;100.00
31346;BME280;21711;49.708;18.568;2023-02-21T05:40:52;96834.09;;;8.26;100.00
31346;BME280;21711;49.708;18.568;2023-02-21T05:43:20;96825.72;;;8.14;100.00
31346;BME280;21711;49.708;18.568;2023-02-21T05:45:47;96839.66;;;8.09;100.00
31346;BME280;21711;49.708;18.568;2023-02-21T05:48:14;96843.34;;;8.19;100.00
31346;BME280;21711;49.708;18.568;2023-02-21T05:50:42;96848.09;;;8.16;100.00
31346;BME280;21711;49.708;18.568;2023-02-21T05:53:10;96834.38;;;8.20;100.00
31346;BME280;21711;49.708;18.568;2023-02-21T05:55:38;96836.47;;;8.23;100.00
31346;BME280;21711;49.708;18.568;2023-02-21T05:58:05;96824.38;;;8.22;100.00
31346;BME280;21711;49.708;18.568;2023-02-21T06:00:32;96833.81;;;8.33;100.00
31346;BME280;21711;49.708;18.568;2023-02-21T06:03:00;96832.78;;;8.24;100.00
31346;BME280;21711;49.708;18.568;2023-02-21T06:05:30;96839.91;;;8.23;100.00
31346;BME280;21711;49.708;18.568;2023-02-21T06:07:58;96849.38;;;8.24;100.00
31346;BME280;21711;49.708;18.568;2023-02-21T06:10:25;96842.53;;;8.28;100.00
31346;BME280;21711;49.708;18.568;2023-02-21T06:12:53;96850.16;;;8.35;100.00
31346;BME280;21711;49.708;18.568;2023-02-21T06:15:20;96850.16;;;8.35;100.00
31346;BME280;21711;49.708;18.568;2023-02-21T06:17:47;96857.28;;;8.24;100.00
31346;BME280;21711;49.708;18.568;2023-02-21T06:20:15;96853.84;;;8.39;100.00
31346;BME280;21711;49.708;18.568;2023-02-21T06:22:43;96860.19;;;8.23;100.00
31346;BME280;21711;49.708;18.568;2023-02-21T06:25:11;96860.69;;;8.35;100.00
31346;BME280;21711;49.708;18.568;2023-02-21T06:27:38;96865.16;;;8.35;100.00
31346;BME280;21711;49.708;18.568;2023-02-21T06:30:06;96873.31;;;8.38;100.00
31346;BME280;21711;49.708;18.568;2023-02-21T06:32:33;96881.50;;;8.26;100.00
31346;BME280;21711;49.708;18.568;2023-02-21T06:35:01;96880.97;;;8.29;100.00
31346;BME280;21711;49.708;18.568;2023-02-21T06:37:28;96883.88;;;8.54;100.00
31346;BME280;21711;49.708;18.568;2023-02-21T06:39:56;96877.50;;;8.65;100.00
31346;BME280;21711;49.708;18.568;2023-02-21T06:42:23;96885.94;;;8.62;100.00
31346;BME280;21711;49.708;18.568;2023-02-21T06:44:50;96895.16;;;8.65;100.00
31346;BME280;21711;49.708;18.568;2023-02-21T06:47:18;96893.56;;;8.64;100.00
31346;BME280;21711;49.708;18.568;2023-02-21T06:49:45;96897.00;;;8.70;100.00
31346;BME280;21711;49.708;18.568;2023-02-21T06:52:12;96895.16;;;8.70;100.00
31346;BME280;21711;49.708;18.568;2023-02-21T06:54:40;96887.78;;;8.62;100.00
31346;BME280;21711;49.708;18.568;2023-02-21T06:57:08;96893.03;;;8.72;100.00
31346;BME280;21711;49.708;18.568;2023-02-21T06:59:35;96899.59;;;8.80;100.00
31346;BME280;21711;49.708;18.568;2023-02-21T07:02:02;96899.00;;;8.93;100.00
31346;BME280;21711;49.708;18.568;2023-02-21T07:04:30;96890.88;;;8.74;100.00
31346;BME280;21711;49.708;18.568;2023-02-21T07:06:58;96893.78;;;8.83;100.00
31346;BME280;21711;49.708;18.568;2023-02-21T07:09:25;96901.31;;;9.11;100.00
31346;BME280;21711;49.708;18.568;2023-02-21T07:11:52;96900.03;;;8.98;100.00
31346;BME280;21711;49.708;18.568;2023-02-21T07:14:19;96895.88;;;8.81;100.00
31346;BME280;21711;49.708;18.568;2023-02-21T07:16:46;96900.88;;;8.82;100.00
31346;BME280;21711;49.708;18.568;2023-02-21T07:19:14;96895.69;;;8.67;100.00
31346;BME280;21711;49.708;18.568;2023-02-21T07:21:42;96898.50;;;8.86;100.00
31346;BME280;21711;49.708;18.568;2023-02-21T07:24:10;96900.03;;;8.98;100.00
31346;BME280;21711;49.708;18.568;2023-02-21T07:26:37;96907.69;;;8.99;100.00
31346;BME280;21711;49.708;18.568;2023-02-21T07:29:05;96908.22;;;8.96;100.00
31346;BME280;21711;49.708;18.568;2023-02-21T07:31:33;96909.84;;;8.87;100.00
31346;BME280;21711;49.708;18.568;2023-02-21T07:34:00;96920.09;;;8.93;100.00
31346;BME280;21711;49.708;18.568;2023-02-21T07:36:28;96933.03;;;8.95;100.00
31346;BME280;21711;49.708;18.568;2023-02-21T07:38:55;96924.97;;;8.55;100.00
31346;BME280;21711;49.708;18.568;2023-02-21T07:41:22;96922.03;;;8.67;100.00
31346;BME280;21711;49.708;18.568;2023-02-21T07:43:50;96941.25;;;8.83;100.00
31346;BME280;21711;49.708;18.568;2023-02-21T07:46:17;96939.38;;;8.84;100.00
31346;BME280;21711;49.708;18.568;2023-02-21T07:48:45;96943.34;;;8.81;100.00
31346;BME280;21711;49.708;18.568;2023-02-21T07:51:12;96938.31;;;8.90;100.00
31346;BME280;21711;49.708;18.568;2023-02-21T07:53:40;96933.34;;;8.83;100.00
31346;BME280;21711;49.708;18.568;2023-02-21T07:56:08;96932.66;;;9.17;100.00
31346;BME280;21711;49.708;18.568;2023-02-21T07:58:35;96936.53;;;9.36;100.00
31346;BME280;21711;49.708;18.568;2023-02-21T08:01:06;96949.00;;;9.19;100.00
31346;BME280;21711;49.708;18.568;2023-02-21T08:03:33;96943.94;;;9.33;100.00
31346;BME280;21711;49.708;18.568;2023-02-21T08:06:01;96939.41;;;9.44;100.00
31346;BME280;21711;49.708;18.568;2023-02-21T08:08:28;96944.03;;;9.07;100.00
31346;BME280;21711;49.708;18.568;2023-02-21T08:10:56;96945.63;;;9.14;100.00
31346;BME280;21711;49.708;18.568;2023-02-21T08:13:23;96950.63;;;9.15;100.00
31346;BME280;21711;49.708;18.568;2023-02-21T08:15:50;96945.69;;;8.98;100.00
31346;BME280;21711;49.708;18.568;2023-02-21T08:18:21;96949.16;;;8.78;100.00
31346;BME280;21711;49.708;18.568;2023-02-21T08:20:54;96962.06;;;8.74;100.00
31346;BME280;21711;49.708;18.568;2023-02-21T08:23:23;96969.69;;;8.91;100.00
31346;BME280;21711;49.708;18.568;2023-02-21T08:25:50;96962.09;;;8.69;100.00
31346;BME280;21711;49.708;18.568;2023-02-21T08:28:17;96953.88;;;8.81;100.00
31346;BME280;21711;49.708;18.568;2023-02-21T08:30:45;96955.47;;;8.87;100.00
31346;BME280;21711;49.708;18.568;2023-02-21T08:33:12;96963.13;;;8.89;100.00
31346;BME280;21711;49.708;18.568;2023-02-21T08:35:39;96957.53;;;8.95;100.00
31346;BME280;21711;49.708;18.568;2023-02-21T08:38:07;96963.13;;;8.89;100.00
31346;BME280;21711;49.708;18.568;2023-02-21T08:40:36;96968.66;;;8.87;100.00
31346;BME280;21711;49.708;18.568;2023-02-21T08:43:03;96967.78;;;9.13;100.00
31346;BME280;21711;49.708;18.568;2023-02-21T08:45:31;96975.19;;;9.00;100.00
31346;BME280;21711;49.708;18.568;2023-02-21T08:47:59;96964.84;;;9.14;100.00
31346;BME280;21711;49.708;18.568;2023-02-21T08:50:27;96972.75;;;9.14;100.00
31346;BME280;21711;49.708;18.568;2023-02-21T08:52:55;96963.28;;;9.13;100.00
31346;BME280;21711;49.708;18.568;2023-02-21T08:55:23;96964.59;;;9.16;100.00
31346;BME280;21711;49.708;18.568;2023-02-21T08:57:52;96970.84;;;9.30;100.00
31346;BME280;21711;49.708;18.568;2023-02-21T09:00:23;96975.44;;;9.09;100.00
31346;BME280;21711;49.708;18.568;2023-02-21T09:02:51;96967.44;;;9.30;100.00
31346;BME280;21711;49.708;18.568;2023-02-21T09:05:26;96966.63;;;9.34;100.00
31346;BME280;21711;49.708;18.568;2023-02-21T09:07:55;96968.97;;;9.41;100.00
31346;BME280;21711;49.708;18.568;2023-02-21T09:10:30;96974.22;;;9.46;100.00
31346;BME280;21711;49.708;18.568;2023-02-21T09:13:01;96974.06;;;9.17;100.00
31346;BME280;21711;49.708;18.568;2023-02-21T09:15:28;96970.28;;;9.39;100.00
31346;BME280;21711;49.708;18.568;2023-02-21T09:17:55;96965.75;;;9.50;100.00
31346;BME280;21711;49.708;18.568;2023-02-21T09:20:25;96973.69;;;9.50;100.00
31346;BME280;21711;49.708;18.568;2023-02-21T09:22:52;96967.63;;;9.44;100.00
31346;BME280;21711;49.708;18.568;2023-02-21T09:25:23;96972.03;;;9.59;100.00
31346;BME280;21711;49.708;18.568;2023-02-21T09:27:52;96974.25;;;9.41;100.00
31346;BME280;21711;49.708;18.568;2023-02-21T09:30:23;96981.03;;;9.58;100.00
31346;BME280;21711;49.708;18.568;2023-02-21T09:32:53;96979.03;;;9.84;100.00
31346;BME280;21711;49.708;18.568;2023-02-21T09:35:21;96975.78;;;9.98;100.00
31346;BME280;21711;49.708;18.568;2023-02-21T09:37:49;96979.13;;;10.44;100.00
31346;BME280;21711;49.708;18.568;2023-02-21T09:43:19;96995.47;;;10.11;100.00
31346;BME280;21711;49.708;18.568;2023-02-21T09:45:49;96994.81;;;9.95;100.00
31346;BME280;21711;49.708;18.568;2023-02-21T09:48:20;96992.91;;;10.00;100.00
31346;BME280;21711;49.708;18.568;2023-02-21T09:51:04;96990.50;;;10.44;100.00
31346;BME280;21711;49.708;18.568;2023-02-21T09:53:55;96990.16;;;11.05;100.00
31346;BME280;21711;49.708;18.568;2023-02-21T09:56:34;96991.84;;;11.20;100.00
31346;BME280;21711;49.708;18.568;2023-02-21T09:59:10;96990.41;;;10.55;100.00
31346;BME280;21711;49.708;18.568;2023-02-21T10:01:49;96989.31;;;10.85;100.00
31346;BME280;21711;49.708;18.568;2023-02-21T10:10:34;96988.16;;;10.91;100.00
31346;BME280;21711;49.708;18.568;2023-02-21T10:19:27;97010.19;;;12.65;100.00
31346;BME280;21711;49.708;18.568;2023-02-21T10:21:44;97007.78;;;11.97;100.00
31346;BME280;21711;49.708;18.568;2023-02-21T10:24:16;96998.78;;;11.79;100.00
31346;BME280;21711;49.708;18.568;2023-02-21T10:27:04;96993.91;;;11.23;100.00
31346;BME280;21711;49.708;18.568;2023-02-21T10:30:00;96988.25;;;11.30;100.00
31346;BME280;21711;49.708;18.568;2023-02-21T10:32:31;96998.34;;;11.91;100.00
31346;BME280;21711;49.708;18.568;2023-02-21T10:34:59;97001.38;;;12.36;100.00
31346;BME280;21711;49.708;18.568;2023-02-21T10:38:00;97002.63;;;12.06;100.00
31346;BME280;21711;49.708;18.568;2023-02-21T10:40:47;97002.38;;;11.44;100.00
31346;BME280;21711;49.708;18.568;2023-02-21T10:43:18;97002.69;;;11.62;100.00
31346;BME280;21711;49.708;18.568;2023-02-21T10:48:43;96997.53;;;11.52;100.00
31346;BME280;21711;49.708;18.568;2023-02-21T10:51:36;97007.41;;;11.46;100.00
31346;BME280;21711;49.708;18.568;2023-02-21T10:54:23;97003.13;;;11.50;100.00
31346;BME280;21711;49.708;18.568;2023-02-21T10:56:52;97004.47;;;11.48;100.00
31346;BME280;21711;49.708;18.568;2023-02-21T10:59:31;96995.19;;;11.26;100.00
31346;BME280;21711;49.708;18.568;2023-02-21T11:02:02;97004.84;;;10.92;100.00
31346;BME280;21711;49.708;18.568;2023-02-21T11:04:32;97007.44;;;11.22;100.00
31346;BME280;21711;49.708;18.568;2023-02-21T11:07:08;97014.94;;;11.77;100.00
31346;BME280;21711;49.708;18.568;2023-02-21T11:09:43;97005.69;;;11.55;100.00
31346;BME280;21711;49.708;18.568;2023-02-21T11:17:27;97011.66;;;12.05;100.00
31346;BME280;21711;49.708;18.568;2023-02-21T11:22:36;96999.72;;;11.44;100.00
31346;BME280;21711;49.708;18.568;2023-02-21T11:27:44;97003.91;;;11.51;100.00
31346;BME280;21711;49.708;18.568;2023-02-21T11:30:20;96998.97;;;11.20;100.00
31346;BME280;21711;49.708;18.568;2023-02-21T11:32:55;96994.84;;;11.32;100.00
31346;BME280;21711;49.708;18.568;2023-02-21T11:35:33;97006.25;;;11.52;100.00
31346;BME280;21711;49.708;18.568;2023-02-21T11:38:07;97002.03;;;11.51;100.00
31346;BME280;21711;49.708;18.568;2023-02-21T11:40:55;97006.28;;;12.29;100.00
31346;BME280;21711;49.708;18.568;2023-02-21T11:43:32;97009.16;;;12.94;100.00
31346;BME280;21711;49.708;18.568;2023-02-21T11:46:04;97014.53;;;12.42;100.00
31346;BME280;21711;49.708;18.568;2023-02-21T11:51:59;97003.56;;;12.15;100.00
31346;BME280;21711;49.708;18.568;2023-02-21T11:54:29;97009.78;;;12.25;100.00
31346;BME280;21711;49.708;18.568;2023-02-21T12:00:28;96999.19;;;11.48;100.00
31346;BME280;21711;49.708;18.568;2023-02-21T12:06:34;96999.97;;;11.48;100.00
31346;BME280;21711;49.708;18.568;2023-02-21T12:44:23;96994.91;;;11.27;100.00
31346;BME280;21711;49.708;18.568;2023-02-21T12:50:02;96983.16;;;11.39;100.00
31346;BME280;21711;49.708;18.568;2023-02-21T12:56:23;96995.53;;;11.82;100.00
31346;BME280;21711;49.708;18.568;2023-02-21T13:01:55;96992.28;;;12.09;100.00
31346;BME280;21711;49.708;18.568;2023-02-21T13:05:15;96985.38;;;11.89;100.00
31346;BME280;21711;49.708;18.568;2023-02-21T13:08:21;97000.63;;;11.78;100.00
31346;BME280;21711;49.708;18.568;2023-02-21T13:11:12;97012.00;;;11.60;100.00
31346;BME280;21711;49.708;18.568;2023-02-21T13:13:40;97013.81;;;11.83;100.00
31346;BME280;21711;49.708;18.568;2023-02-21T13:16:10;97004.06;;;11.79;100.00
31346;BME280;21711;49.708;18.568;2023-02-21T13:18:57;97002.06;;;11.70;100.00
31346;BME280;21711;49.708;18.568;2023-02-21T13:24:23;97012.13;;;11.68;100.00
31346;BME280;21711;49.708;18.568;2023-02-21T13:29:32;97006.66;;;11.40;100.00
31346;BME280;21711;49.708;18.568;2023-02-21T13:32:08;97001.81;;;11.48;100.00
31346;BME280;21711;49.708;18.568;2023-02-21T13:35:00;97003.59;;;11.52;100.00
31346;BME280;21711;49.708;18.568;2023-02-21T13:37:33;96990.84;;;11.35;100.00
31346;BME280;21711;49.708;18.568;2023-02-21T13:43:26;97001.03;;;11.47;100.00
31346;BME280;21711;49.708;18.568;2023-02-21T13:49:54;97000.78;;;12.06;100.00
31346;BME280;21711;49.708;18.568;2023-02-21T13:52:26;96996.03;;;12.03;100.00
31346;BME280;21711;49.708;18.568;2023-02-21T14:08:57;96998.47;;;10.93;100.00
31346;BME280;21711;49.708;18.568;2023-02-21T14:11:37;96998.75;;;10.67;100.00
31346;BME280;21711;49.708;18.568;2023-02-21T14:17:17;97014.63;;;10.67;100.00
31346;BME280;21711;49.708;18.568;2023-02-21T14:19:53;97015.88;;;10.75;100.00
31346;BME280;21711;49.708;18.568;2023-02-21T14:22:29;97013.28;;;10.70;100.00
31346;BME280;21711;49.708;18.568;2023-02-21T14:25:17;97006.72;;;10.62;100.00
31346;BME280;21711;49.708;18.568;2023-02-21T14:27:45;97008.03;;;10.64;100.00
31346;BME280;21711;49.708;18.568;2023-02-21T14:30:28;97005.94;;;10.86;100.00
31346;BME280;21711;49.708;18.568;2023-02-21T14:33:21;97013.22;;;10.45;100.00
31346;BME280;21711;49.708;18.568;2023-02-21T14:36:06;97017.31;;;10.27;100.00
31346;BME280;21711;49.708;18.568;2023-02-21T14:38:41;97014.66;;;10.27;100.00
31346;BME280;21711;49.708;18.568;2023-02-21T14:41:32;97024.16;;;10.28;100.00
31346;BME280;21711;49.708;18.568;2023-02-21T14:44:41;97035.31;;;10.20;100.00
31346;BME280;21711;49.708;18.568;2023-02-21T15:06:06;97048.09;;;10.02;100.00
31346;BME280;21711;49.708;18.568;2023-02-21T15:08:46;97042.00;;;10.07;100.00
31346;BME280;21711;49.708;18.568;2023-02-21T15:11:31;97044.22;;;9.89;100.00
31346;BME280;21711;49.708;18.568;2023-02-21T15:14:24;97045.56;;;9.86;100.00
31346;BME280;21711;49.708;18.568;2023-02-21T15:16:58;97043.53;;;9.68;100.00
31346;BME280;21711;49.708;18.568;2023-02-21T15:19:34;97049.53;;;9.84;100.00
31346;BME280;21711;49.708;18.568;2023-02-21T15:22:24;97043.00;;;9.71;100.00
31346;BME280;21711;49.708;18.568;2023-02-21T15:33:05;97043.63;;;9.47;100.00
31346;BME280;21711;49.708;18.568;2023-02-21T15:43:53;97050.19;;;9.60;100.00
31346;BME280;21711;49.708;18.568;2023-02-21T15:46:55;97051.69;;;9.71;100.00
31346;BME280;21711;49.708;18.568;2023-02-21T15:49:29;97053.66;;;9.45;100.00
31346;BME280;21711;49.708;18.568;2023-02-21T15:52:02;97053.34;;;9.57;100.00
31346;BME280;21711;49.708;18.568;2023-02-21T15:54:35;97046.72;;;9.70;100.00
31346;BME280;21711;49.708;18.568;2023-02-21T15:57:22;97055.78;;;9.48;100.00
31346;BME280;21711;49.708;18.568;2023-02-21T16:02:43;97056.28;;;9.50;100.00
31346;BME280;21711;49.708;18.568;2023-02-21T16:05:29;97056.34;;;9.34;100.00
31346;BME280;21711;49.708;18.568;2023-02-21T16:08:02;97057.91;;;9.41;100.00
31346;BME280;21711;49.708;18.568;2023-02-21T16:10:31;97062.88;;;9.53;100.00
31346;BME280;21711;49.708;18.568;2023-02-21T16:13:02;97064.25;;;9.34;100.00
31346;BME280;21711;49.708;18.568;2023-02-21T16:15:32;97071.16;;;9.25;100.00
31346;BME280;21711;49.708;18.568;2023-02-21T16:18:05;97073.25;;;9.33;100.00
31346;BME280;21711;49.708;18.568;2023-02-21T16:20:41;97071.41;;;9.24;100.00
31346;BME280;21711;49.708;18.568;2023-02-21T16:23:25;97084.91;;;9.06;100.00
31346;BME280;21711;49.708;18.568;2023-02-21T16:28:37;97095.72;;;9.05;100.00
31346;BME280;21711;49.708;18.568;2023-02-21T16:31:30;97092.03;;;8.90;100.00
31346;BME280;21711;49.708;18.568;2023-02-21T16:33:58;97085.69;;;9.12;100.00
31346;BME280;21711;49.708;18.568;2023-02-21T16:36:29;97099.94;;;8.95;100.00